sensor_id;sensor_type;location;lat;lon;timestamp;P1;durP1;ratioP1;P2;durP2;ratioP2
3573;SDS011;1801;51.050;6.246;2023-03-01T00:02:02;15.70;;;8.50;;
3573;SDS011;1801;51.050;6.246;2023-03-01T00:04:29;18.45;;;7.30;;
3573;SDS011;1801;51.050;6.246;2023-03-01T00:06:54;18.17;;;7.77;;
3573;SDS011;1801;51.050;6.246;2023-03-01T00:09:19;10.87;;;6.77;;
3573;SDS011;1801;51.050;6.246;2023-03-01T00:11:45;14.90;;;8.50;;
3573;SDS011;1801;51.050;6.246;2023-03-01T00:14:10;12.07;;;7.47;;
3573;SDS011;1801;51.050;6.246;2023-03-01T00:16:37;11.50;;;7.57;;
3573;SDS011;1801;51.050;6.246;2023-03-01T00:19:04;13.55;;;7.22;;
3573;SDS011;1801;51.050;6.246;2023-03-01T00:21:30;13.10;;;8.90;;
3573;SDS011;1801;51.050;6.246;2023-03-01T00:23:55;17.40;;;7.07;;
3573;SDS011;1801;51.050;6.246;2023-03-01T00:26:21;19.03;;;8.37;;
3573;SDS011;1801;51.050;6.246;2023-03-01T00:28:47;14.13;;;8.45;;
3573;SDS011;1801;51.050;6.246;2023-03-01T00:31:13;14.97;;;8.30;;
3573;SDS011;1801;51.050;6.246;2023-03-01T00:33:39;13.73;;;8.20;;
3573;SDS011;1801;51.050;6.246;2023-03-01T00:36:04;21.70;;;8.50;;
3573;SDS011;1801;51.050;6.246;2023-03-01T00:38:30;19.80;;;7.77;;
3573;SDS011;1801;51.050;6.246;2023-03-01T00:40:55;16.30;;;8.10;;
3573;SDS011;1801;51.050;6.246;2023-03-01T00:43:20;13.63;;;8.13;;
3573;SDS011;1801;51.050;6.246;2023-03-01T00:45:45;16.63;;;8.37;;
3573;SDS011;1801;51.050;6.246;2023-03-01T00:48:10;17.10;;;8.70;;
3573;SDS011;1801;51.050;6.246;2023-03-01T00:50:36;16.67;;;8.07;;
3573;SDS011;1801;51.050;6.246;2023-03-01T00:53:01;16.93;;;8.10;;
3573;SDS011;1801;51.050;6.246;2023-03-01T00:55:26;24.93;;;8.87;;
3573;SDS011;1801;51.050;6.246;2023-03-01T00:57:52;14.13;;;8.40;;
3573;SDS011;1801;51.050;6.246;2023-03-01T01:00:17;14.83;;;8.33;;
3573;SDS011;1801;51.050;6.246;2023-03-01T01:02:43;16.37;;;9.50;;
3573;SDS011;1801;51.050;6.246;2023-03-01T01:05:08;17.73;;;8.97;;
3573;SDS011;1801;51.050;6.246;2023-03-01T01:07:33;18.10;;;8.60;;
3573;SDS011;1801;51.050;6.246;2023-03-01T01:09:58;26.67;;;10.30;;
3573;SDS011;1801;51.050;6.246;2023-03-01T01:12:24;13.57;;;8.70;;
3573;SDS011;1801;51.050;6.246;2023-03-01T01:14:49;15.80;;;9.33;;
3573;SDS011;1801;51.050;6.246;2023-03-01T01:17:14;18.57;;;8.27;;
3573;SDS011;1801;51.050;6.246;2023-03-01T01:19:39;18.33;;;9.97;;
3573;SDS011;1801;51.050;6.246;2023-03-01T01:22:04;20.37;;;9.40;;
3573;SDS011;1801;51.050;6.246;2023-03-01T01:24:30;18.63;;;9.10;;
3573;SDS011;1801;51.050;6.246;2023-03-01T01:26:55;17.73;;;9.80;;
3573;SDS011;1801;51.050;6.246;2023-03-01T01:29:20;18.77;;;9.60;;
3573;SDS011;1801;51.050;6.246;2023-03-01T01:31:45;20.60;;;9.47;;
3573;SDS011;1801;51.050;6.246;2023-03-01T01:34:15;17.50;;;8.90;;
3573;SDS011;1801;51.050;6.246;2023-03-01T01:36:41;15.63;;;8.73;;
3573;SDS011;1801;51.050;6.246;2023-03-01T01:39:06;15.47;;;9.60;;
3573;SDS011;1801;51.050;6.246;2023-03-01T01:41:32;15.20;;;8.83;;
3573;SDS011;1801;51.050;6.246;2023-03-01T01:44:11;19.60;;;9.40;;
3573;SDS011;1801;51.050;6.246;2023-03-01T01:46:37;19.48;;;9.10;;
3573;SDS011;1801;51.050;6.246;2023-03-01T01:49:04;19.85;;;9.05;;
3573;SDS011;1801;51.050;6.246;2023-03-01T01:51:37;17.92;;;9.07;;
3573;SDS011;1801;51.050;6.246;2023-03-01T01:54:06;15.77;;;9.52;;
3573;SDS011;1801;51.050;6.246;2023-03-01T01:56:33;20.58;;;9.05;;
3573;SDS011;1801;51.050;6.246;2023-03-01T01:58:58;22.40;;;10.97;;
3573;SDS011;1801;51.050;6.246;2023-03-01T02:01:24;21.67;;;9.50;;
3573;SDS011;1801;51.050;6.246;2023-03-01T02:03:49;15.50;;;8.90;;
3573;SDS011;1801;51.050;6.246;2023-03-01T02:06:18;15.83;;;9.50;;
3573;SDS011;1801;51.050;6.246;2023-03-01T02:08:44;19.80;;;9.32;;
3573;SDS011;1801;51.050;6.246;2023-03-01T02:11:10;19.02;;;9.35;;
3573;SDS011;1801;51.050;6.246;2023-03-01T02:13:36;15.30;;;10.30;;
3573;SDS011;1801;51.050;6.246;2023-03-01T02:16:05;18.67;;;10.13;;
3573;SDS011;1801;51.050;6.246;2023-03-01T02:18:30;20.42;;;10.48;;
3573;SDS011;1801;51.050;6.246;2023-03-01T02:21:11;23.37;;;9.97;;
3573;SDS011;1801;51.050;6.246;2023-03-01T02:23:39;18.23;;;10.65;;
3573;SDS011;1801;51.050;6.246;2023-03-01T02:26:09;14.63;;;9.00;;
3573;SDS011;1801;51.050;6.246;2023-03-01T02:28:38;24.75;;;9.65;;
3573;SDS011;1801;51.050;6.246;2023-03-01T02:31:05;17.10;;;9.40;;
3573;SDS011;1801;51.050;6.246;2023-03-01T02:33:50;20.70;;;8.73;;
3573;SDS011;1801;51.050;6.246;2023-03-01T02:36:17;22.60;;;10.90;;
3573;SDS011;1801;51.050;6.246;2023-03-01T02:38:43;19.63;;;9.93;;
3573;SDS011;1801;51.050;6.246;2023-03-01T02:41:09;17.57;;;9.10;;
3573;SDS011;1801;51.050;6.246;2023-03-01T02:43:36;22.38;;;10.00;;
3573;SDS011;1801;51.050;6.246;2023-03-01T02:46:04;18.37;;;10.10;;
3573;SDS011;1801;51.050;6.246;2023-03-01T02:48:51;16.13;;;9.13;;
3573;SDS011;1801;51.050;6.246;2023-03-01T02:56:17;21.40;;;11.95;;
3573;SDS011;1801;51.050;6.246;2023-03-01T02:58:42;16.73;;;8.77;;
3573;SDS011;1801;51.050;6.246;2023-03-01T03:01:10;16.70;;;9.98;;
3573;SDS011;1801;51.050;6.246;2023-03-01T03:03:35;20.43;;;10.00;;
3573;SDS011;1801;51.050;6.246;2023-03-01T03:06:00;19.27;;;9.60;;
3573;SDS011;1801;51.050;6.246;2023-03-01T03:08:25;19.13;;;10.27;;
3573;SDS011;1801;51.050;6.246;2023-03-01T03:10:51;20.00;;;10.17;;
3573;SDS011;1801;51.050;6.246;2023-03-01T03:13:16;17.77;;;9.20;;
3573;SDS011;1801;51.050;6.246;2023-03-01T03:15:42;18.77;;;9.30;;
3573;SDS011;1801;51.050;6.246;2023-03-01T03:18:09;20.00;;;9.57;;
3573;SDS011;1801;51.050;6.246;2023-03-01T03:20:35;22.17;;;10.38;;
3573;SDS011;1801;51.050;6.246;2023-03-01T03:23:01;17.80;;;10.23;;
3573;SDS011;1801;51.050;6.246;2023-03-01T03:25:27;19.37;;;10.10;;
3573;SDS011;1801;51.050;6.246;2023-03-01T03:27:52;18.27;;;9.60;;
3573;SDS011;1801;51.050;6.246;2023-03-01T03:30:21;27.65;;;10.57;;
3573;SDS011;1801;51.050;6.246;2023-03-01T03:32:47;17.83;;;10.73;;
3573;SDS011;1801;51.050;6.246;2023-03-01T03:35:23;19.60;;;10.30;;
3573;SDS011;1801;51.050;6.246;2023-03-01T03:37:49;21.92;;;10.38;;
3573;SDS011;1801;51.050;6.246;2023-03-01T03:40:28;14.90;;;9.80;;
3573;SDS011;1801;51.050;6.246;2023-03-01T03:42:53;15.48;;;10.02;;
3573;SDS011;1801;51.050;6.246;2023-03-01T03:45:18;23.50;;;11.33;;
3573;SDS011;1801;51.050;6.246;2023-03-01T03:47:44;26.60;;;11.20;;
3573;SDS011;1801;51.050;6.246;2023-03-01T03:50:10;20.07;;;10.07;;
3573;SDS011;1801;51.050;6.246;2023-03-01T03:52:35;17.58;;;9.70;;
3573;SDS011;1801;51.050;6.246;2023-03-01T03:55:00;20.93;;;10.97;;
3573;SDS011;1801;51.050;6.246;2023-03-01T03:57:25;17.57;;;10.43;;
3573;SDS011;1801;51.050;6.246;2023-03-01T03:59:51;19.03;;;10.73;;
3573;SDS011;1801;51.050;6.246;2023-03-01T04:02:16;25.57;;;10.90;;
3573;SDS011;1801;51.050;6.246;2023-03-01T04:04:47;18.95;;;10.38;;
3573;SDS011;1801;51.050;6.246;2023-03-01T04:07:14;19.83;;;11.60;;
3573;SDS011;1801;51.050;6.246;2023-03-01T04:09:39;26.43;;;10.70;;
3573;SDS011;1801;51.050;6.246;2023-03-01T04:12:06;19.27;;;10.45;;
3573;SDS011;1801;51.050;6.246;2023-03-01T04:14:31;27.47;;;10.83;;
3573;SDS011;1801;51.050;6.246;2023-03-01T04:16:57;25.60;;;11.37;;
3573;SDS011;1801;51.050;6.246;2023-03-01T04:19:22;23.97;;;11.67;;
3573;SDS011;1801;51.050;6.246;2023-03-01T04:21:47;20.00;;;11.97;;
3573;SDS011;1801;51.050;6.246;2023-03-01T04:24:12;24.57;;;10.47;;
3573;SDS011;1801;51.050;6.246;2023-03-01T04:26:38;21.13;;;11.40;;
3573;SDS011;1801;51.050;6.246;2023-03-01T04:29:03;29.07;;;12.10;;
3573;SDS011;1801;51.050;6.246;2023-03-01T04:31:28;25.50;;;11.57;;
3573;SDS011;1801;51.050;6.246;2023-03-01T04:33:54;20.70;;;11.90;;
3573;SDS011;1801;51.050;6.246;2023-03-01T04:36:21;21.08;;;12.15;;
3573;SDS011;1801;51.050;6.246;2023-03-01T04:38:47;17.38;;;11.15;;
3573;SDS011;1801;51.050;6.246;2023-03-01T04:41:14;23.25;;;11.70;;
3573;SDS011;1801;51.050;6.246;2023-03-01T04:43:39;29.17;;;12.00;;
3573;SDS011;1801;51.050;6.246;2023-03-01T04:46:05;23.20;;;11.87;;
3573;SDS011;1801;51.050;6.246;2023-03-01T04:48:32;17.70;;;10.13;;
3573;SDS011;1801;51.050;6.246;2023-03-01T04:51:00;22.97;;;11.53;;
3573;SDS011;1801;51.050;6.246;2023-03-01T04:53:25;25.63;;;11.77;;
3573;SDS011;1801;51.050;6.246;2023-03-01T04:55:51;22.93;;;12.30;;
3573;SDS011;1801;51.050;6.246;2023-03-01T04:58:16;20.10;;;11.00;;
3573;SDS011;1801;51.050;6.246;2023-03-01T05:00:41;19.00;;;11.13;;
3573;SDS011;1801;51.050;6.246;2023-03-01T05:03:07;22.20;;;11.90;;
3573;SDS011;1801;51.050;6.246;2023-03-01T05:05:34;22.58;;;11.85;;
3573;SDS011;1801;51.050;6.246;2023-03-01T05:08:00;20.90;;;11.00;;
3573;SDS011;1801;51.050;6.246;2023-03-01T05:10:27;27.40;;;12.82;;
3573;SDS011;1801;51.050;6.246;2023-03-01T05:12:54;28.48;;;11.93;;
3573;SDS011;1801;51.050;6.246;2023-03-01T05:15:19;18.53;;;11.20;;
3573;SDS011;1801;51.050;6.246;2023-03-01T05:17:46;23.02;;;13.52;;
3573;SDS011;1801;51.050;6.246;2023-03-01T05:20:11;21.00;;;12.40;;
3573;SDS011;1801;51.050;6.246;2023-03-01T05:22:37;24.43;;;11.83;;
3573;SDS011;1801;51.050;6.246;2023-03-01T05:25:02;22.23;;;11.67;;
3573;SDS011;1801;51.050;6.246;2023-03-01T05:27:28;21.17;;;11.37;;
3573;SDS011;1801;51.050;6.246;2023-03-01T05:29:54;17.90;;;10.98;;
3573;SDS011;1801;51.050;6.246;2023-03-01T05:32:19;26.00;;;12.53;;
3573;SDS011;1801;51.050;6.246;2023-03-01T05:34:44;24.13;;;11.60;;
3573;SDS011;1801;51.050;6.246;2023-03-01T05:37:11;27.98;;;11.80;;
3573;SDS011;1801;51.050;6.246;2023-03-01T05:39:36;24.03;;;13.17;;
3573;SDS011;1801;51.050;6.246;2023-03-01T05:42:01;23.10;;;14.00;;
3573;SDS011;1801;51.050;6.246;2023-03-01T05:44:27;30.60;;;13.80;;
3573;SDS011;1801;51.050;6.246;2023-03-01T05:46:53;24.98;;;12.18;;
3573;SDS011;1801;51.050;6.246;2023-03-01T05:49:19;26.10;;;11.97;;
3573;SDS011;1801;51.050;6.246;2023-03-01T05:51:47;26.97;;;14.07;;
3573;SDS011;1801;51.050;6.246;2023-03-01T05:54:13;23.48;;;11.73;;
3573;SDS011;1801;51.050;6.246;2023-03-01T05:56:38;24.17;;;11.83;;
3573;SDS011;1801;51.050;6.246;2023-03-01T05:59:04;25.03;;;11.00;;
3573;SDS011;1801;51.050;6.246;2023-03-01T06:01:30;20.27;;;11.50;;
3573;SDS011;1801;51.050;6.246;2023-03-01T06:03:55;27.57;;;12.70;;
3573;SDS011;1801;51.050;6.246;2023-03-01T06:06:21;21.58;;;11.82;;
3573;SDS011;1801;51.050;6.246;2023-03-01T06:08:47;24.10;;;11.90;;
3573;SDS011;1801;51.050;6.246;2023-03-01T06:11:12;22.23;;;13.23;;
3573;SDS011;1801;51.050;6.246;2023-03-01T06:13:37;24.50;;;12.10;;
3573;SDS011;1801;51.050;6.246;2023-03-01T06:16:05;23.70;;;11.83;;
3573;SDS011;1801;51.050;6.246;2023-03-01T06:18:31;26.17;;;11.63;;
3573;SDS011;1801;51.050;6.246;2023-03-01T06:20:56;26.20;;;13.60;;
3573;SDS011;1801;51.050;6.246;2023-03-01T06:23:22;22.67;;;11.77;;
3573;SDS011;1801;51.050;6.246;2023-03-01T06:25:48;22.20;;;12.20;;
3573;SDS011;1801;51.050;6.246;2023-03-01T06:28:13;20.93;;;11.43;;
3573;SDS011;1801;51.050;6.246;2023-03-01T06:30:38;28.70;;;13.37;;
3573;SDS011;1801;51.050;6.246;2023-03-01T06:33:03;29.03;;;12.83;;
3573;SDS011;1801;51.050;6.246;2023-03-01T06:35:29;27.67;;;13.00;;
3573;SDS011;1801;51.050;6.246;2023-03-01T06:37:55;19.30;;;11.27;;
3573;SDS011;1801;51.050;6.246;2023-03-01T06:40:20;28.33;;;12.90;;
3573;SDS011;1801;51.050;6.246;2023-03-01T06:42:47;32.93;;;12.43;;
3573;SDS011;1801;51.050;6.246;2023-03-01T06:45:14;23.95;;;11.90;;
3573;SDS011;1801;51.050;6.246;2023-03-01T06:47:39;30.93;;;12.57;;
3573;SDS011;1801;51.050;6.246;2023-03-01T06:50:04;24.10;;;11.63;;
3573;SDS011;1801;51.050;6.246;2023-03-01T06:52:30;21.13;;;11.90;;
3573;SDS011;1801;51.050;6.246;2023-03-01T06:54:55;27.80;;;12.40;;
3573;SDS011;1801;51.050;6.246;2023-03-01T06:57:20;27.00;;;13.37;;
3573;SDS011;1801;51.050;6.246;2023-03-01T06:59:46;24.20;;;12.83;;
3573;SDS011;1801;51.050;6.246;2023-03-01T07:02:11;27.07;;;12.83;;
3573;SDS011;1801;51.050;6.246;2023-03-01T07:04:37;27.87;;;12.80;;
3573;SDS011;1801;51.050;6.246;2023-03-01T07:07:02;23.33;;;11.80;;
3573;SDS011;1801;51.050;6.246;2023-03-01T07:09:27;23.63;;;12.77;;
3573;SDS011;1801;51.050;6.246;2023-03-01T07:11:52;22.43;;;11.63;;
3573;SDS011;1801;51.050;6.246;2023-03-01T07:14:18;26.10;;;12.43;;
3573;SDS011;1801;51.050;6.246;2023-03-01T07:16:45;25.65;;;13.93;;
3573;SDS011;1801;51.050;6.246;2023-03-01T07:19:10;25.37;;;11.50;;
3573;SDS011;1801;51.050;6.246;2023-03-01T07:21:35;24.43;;;10.43;;
3573;SDS011;1801;51.050;6.246;2023-03-01T07:24:02;31.00;;;13.95;;
3573;SDS011;1801;51.050;6.246;2023-03-01T07:26:27;26.53;;;12.00;;
3573;SDS011;1801;51.050;6.246;2023-03-01T07:28:52;24.30;;;12.33;;
3573;SDS011;1801;51.050;6.246;2023-03-01T07:31:17;24.60;;;12.37;;
3573;SDS011;1801;51.050;6.246;2023-03-01T07:33:43;22.50;;;12.33;;
3573;SDS011;1801;51.050;6.246;2023-03-01T07:36:08;26.87;;;11.90;;
3573;SDS011;1801;51.050;6.246;2023-03-01T07:38:34;22.97;;;11.57;;
3573;SDS011;1801;51.050;6.246;2023-03-01T07:40:59;22.60;;;11.60;;
3573;SDS011;1801;51.050;6.246;2023-03-01T07:43:25;24.10;;;13.13;;
3573;SDS011;1801;51.050;6.246;2023-03-01T07:45:50;24.57;;;11.47;;
3573;SDS011;1801;51.050;6.246;2023-03-01T07:48:15;21.43;;;10.60;;
3573;SDS011;1801;51.050;6.246;2023-03-01T07:50:40;20.63;;;11.27;;
3573;SDS011;1801;51.050;6.246;2023-03-01T07:53:06;16.60;;;10.73;;
3573;SDS011;1801;51.050;6.246;2023-03-01T07:55:31;18.47;;;11.10;;
3573;SDS011;1801;51.050;6.246;2023-03-01T07:57:56;18.43;;;10.80;;
3573;SDS011;1801;51.050;6.246;2023-03-01T08:00:21;23.57;;;11.97;;
3573;SDS011;1801;51.050;6.246;2023-03-01T08:02:46;20.60;;;12.00;;
3573;SDS011;1801;51.050;6.246;2023-03-01T08:05:12;19.90;;;11.13;;
3573;SDS011;1801;51.050;6.246;2023-03-01T08:07:37;23.20;;;11.63;;
3573;SDS011;1801;51.050;6.246;2023-03-01T08:10:02;21.23;;;11.03;;
3573;SDS011;1801;51.050;6.246;2023-03-01T08:12:28;26.83;;;12.40;;
3573;SDS011;1801;51.050;6.246;2023-03-01T08:14:53;20.00;;;10.37;;
3573;SDS011;1801;51.050;6.246;2023-03-01T08:17:18;22.53;;;11.30;;
3573;SDS011;1801;51.050;6.246;2023-03-01T08:19:44;18.97;;;11.17;;
3573;SDS011;1801;51.050;6.246;2023-03-01T08:22:09;24.23;;;11.53;;
3573;SDS011;1801;51.050;6.246;2023-03-01T08:24:34;21.10;;;11.00;;
3573;SDS011;1801;51.050;6.246;2023-03-01T08:27:00;22.73;;;11.37;;
3573;SDS011;1801;51.050;6.246;2023-03-01T08:29:27;20.02;;;11.13;;
3573;SDS011;1801;51.050;6.246;2023-03-01T08:31:52;20.90;;;11.30;;
3573;SDS011;1801;51.050;6.246;2023-03-01T08:34:18;24.00;;;11.47;;
3573;SDS011;1801;51.050;6.246;2023-03-01T08:36:44;25.63;;;12.00;;
3573;SDS011;1801;51.050;6.246;2023-03-01T08:39:14;25.17;;;11.40;;
3573;SDS011;1801;51.050;6.246;2023-03-01T08:41:39;20.73;;;12.50;;
3573;SDS011;1801;51.050;6.246;2023-03-01T08:44:05;21.53;;;11.57;;
3573;SDS011;1801;51.050;6.246;2023-03-01T08:46:32;22.80;;;10.97;;
3573;SDS011;1801;51.050;6.246;2023-03-01T08:48:57;21.38;;;12.18;;
3573;SDS011;1801;51.050;6.246;2023-03-01T08:51:23;20.40;;;11.47;;
3573;SDS011;1801;51.050;6.246;2023-03-01T08:53:48;21.43;;;11.40;;
3573;SDS011;1801;51.050;6.246;2023-03-01T08:56:14;21.87;;;10.80;;
3573;SDS011;1801;51.050;6.246;2023-03-01T08:58:39;22.20;;;10.83;;
3573;SDS011;1801;51.050;6.246;2023-03-01T09:01:08;19.60;;;11.70;;
3573;SDS011;1801;51.050;6.246;2023-03-01T09:03:33;28.40;;;13.75;;
3573;SDS011;1801;51.050;6.246;2023-03-01T09:06:03;25.67;;;13.50;;
3573;SDS011;1801;51.050;6.246;2023-03-01T09:08:28;23.10;;;13.05;;
3573;SDS011;1801;51.050;6.246;2023-03-01T09:10:54;21.80;;;12.00;;
3573;SDS011;1801;51.050;6.246;2023-03-01T09:13:19;19.57;;;11.57;;
3573;SDS011;1801;51.050;6.246;2023-03-01T09:15:44;28.30;;;12.83;;
3573;SDS011;1801;51.050;6.246;2023-03-01T09:18:09;30.90;;;12.23;;
3573;SDS011;1801;51.050;6.246;2023-03-01T09:20:35;28.03;;;12.60;;
3573;SDS011;1801;51.050;6.246;2023-03-01T09:23:00;21.80;;;11.23;;
3573;SDS011;1801;51.050;6.246;2023-03-01T09:25:25;19.07;;;11.20;;
3573;SDS011;1801;51.050;6.246;2023-03-01T09:27:51;18.80;;;11.90;;
3573;SDS011;1801;51.050;6.246;2023-03-01T09:30:16;27.10;;;11.65;;
3573;SDS011;1801;51.050;6.246;2023-03-01T09:32:42;21.47;;;12.10;;
3573;SDS011;1801;51.050;6.246;2023-03-01T09:35:07;28.50;;;13.40;;
3573;SDS011;1801;51.050;6.246;2023-03-01T09:37:33;19.20;;;10.77;;
3573;SDS011;1801;51.050;6.246;2023-03-01T09:39:59;19.60;;;12.13;;
3573;SDS011;1801;51.050;6.246;2023-03-01T09:42:24;29.00;;;12.77;;
3573;SDS011;1801;51.050;6.246;2023-03-01T09:44:54;22.20;;;12.67;;
3573;SDS011;1801;51.050;6.246;2023-03-01T09:47:25;20.53;;;12.63;;
3573;SDS011;1801;51.050;6.246;2023-03-01T09:52:38;25.10;;;13.77;;
3573;SDS011;1801;51.050;6.246;2023-03-01T09:55:07;21.10;;;11.77;;
3573;SDS011;1801;51.050;6.246;2023-03-01T09:57:39;28.53;;;14.20;;
3573;SDS011;1801;51.050;6.246;2023-03-01T10:02:44;22.70;;;12.67;;
3573;SDS011;1801;51.050;6.246;2023-03-01T10:08:02;21.93;;;12.53;;
3573;SDS011;1801;51.050;6.246;2023-03-01T10:10:33;20.83;;;12.27;;
3573;SDS011;1801;51.050;6.246;2023-03-01T10:13:00;23.90;;;12.63;;
3573;SDS011;1801;51.050;6.246;2023-03-01T10:15:38;22.97;;;12.83;;
3573;SDS011;1801;51.050;6.246;2023-03-01T10:18:16;22.90;;;12.20;;
3573;SDS011;1801;51.050;6.246;2023-03-01T10:20:47;25.67;;;13.30;;
3573;SDS011;1801;51.050;6.246;2023-03-01T10:23:13;20.70;;;13.50;;
3573;SDS011;1801;51.050;6.246;2023-03-01T10:28:16;27.47;;;13.50;;
3573;SDS011;1801;51.050;6.246;2023-03-01T10:30:42;23.97;;;12.80;;
3573;SDS011;1801;51.050;6.246;2023-03-01T10:33:20;20.97;;;12.57;;
3573;SDS011;1801;51.050;6.246;2023-03-01T10:35:46;23.20;;;13.40;;
3573;SDS011;1801;51.050;6.246;2023-03-01T10:38:13;21.63;;;12.00;;
3573;SDS011;1801;51.050;6.246;2023-03-01T10:40:55;26.17;;;13.70;;
3573;SDS011;1801;51.050;6.246;2023-03-01T10:43:22;34.63;;;12.90;;
3573;SDS011;1801;51.050;6.246;2023-03-01T10:45:47;24.63;;;13.90;;
3573;SDS011;1801;51.050;6.246;2023-03-01T10:50:38;30.83;;;13.83;;
3573;SDS011;1801;51.050;6.246;2023-03-01T10:53:09;23.07;;;13.73;;
3573;SDS011;1801;51.050;6.246;2023-03-01T10:55:41;26.67;;;13.47;;
3573;SDS011;1801;51.050;6.246;2023-03-01T10:58:17;29.23;;;13.93;;
3573;SDS011;1801;51.050;6.246;2023-03-01T11:00:52;23.83;;;13.47;;
3573;SDS011;1801;51.050;6.246;2023-03-01T11:03:22;32.07;;;15.80;;
3573;SDS011;1801;51.050;6.246;2023-03-01T11:06:21;23.87;;;13.93;;
3573;SDS011;1801;51.050;6.246;2023-03-01T11:08:41;21.23;;;13.70;;
3573;SDS011;1801;51.050;6.246;2023-03-01T11:13:49;25.77;;;15.23;;
3573;SDS011;1801;51.050;6.246;2023-03-01T11:16:15;20.50;;;13.20;;
3573;SDS011;1801;51.050;6.246;2023-03-01T11:18:55;22.10;;;13.70;;
3573;SDS011;1801;51.050;6.246;2023-03-01T11:21:20;26.47;;;14.87;;
3573;SDS011;1801;51.050;6.246;2023-03-01T11:23:45;19.40;;;12.40;;
3573;SDS011;1801;51.050;6.246;2023-03-01T11:26:12;25.60;;;14.70;;
3573;SDS011;1801;51.050;6.246;2023-03-01T11:28:38;23.77;;;12.80;;
3573;SDS011;1801;51.050;6.246;2023-03-01T11:31:06;21.47;;;12.00;;
3573;SDS011;1801;51.050;6.246;2023-03-01T11:33:41;17.97;;;11.50;;
3573;SDS011;1801;51.050;6.246;2023-03-01T11:38:52;24.50;;;12.97;;
3573;SDS011;1801;51.050;6.246;2023-03-01T11:41:20;20.53;;;12.03;;
3573;SDS011;1801;51.050;6.246;2023-03-01T11:51:38;20.40;;;12.90;;
3573;SDS011;1801;51.050;6.246;2023-03-01T11:54:09;17.60;;;11.37;;
3573;SDS011;1801;51.050;6.246;2023-03-01T11:56:41;21.83;;;11.90;;
3573;SDS011;1801;51.050;6.246;2023-03-01T12:04:12;23.43;;;11.87;;
3573;SDS011;1801;51.050;6.246;2023-03-01T12:09:13;20.57;;;11.57;;
3573;SDS011;1801;51.050;6.246;2023-03-01T12:14:43;20.67;;;12.50;;
3573;SDS011;1801;51.050;6.246;2023-03-01T12:22:52;15.30;;;11.23;;
3573;SDS011;1801;51.050;6.246;2023-03-01T12:25:25;16.07;;;11.60;;
3573;SDS011;1801;51.050;6.246;2023-03-01T12:38:06;23.40;;;12.90;;
3573;SDS011;1801;51.050;6.246;2023-03-01T12:43:36;18.10;;;11.40;;
3573;SDS011;1801;51.050;6.246;2023-03-01T12:51:01;17.57;;;11.33;;
3573;SDS011;1801;51.050;6.246;2023-03-01T12:53:29;16.97;;;11.23;;
3573;SDS011;1801;51.050;6.246;2023-03-01T12:55:56;18.40;;;11.77;;
3573;SDS011;1801;51.050;6.246;2023-03-01T13:11:44;27.13;;;13.00;;
3573;SDS011;1801;51.050;6.246;2023-03-01T13:16:51;21.17;;;12.10;;
3573;SDS011;1801;51.050;6.246;2023-03-01T13:21:41;16.33;;;11.20;;
3573;SDS011;1801;51.050;6.246;2023-03-01T13:24:26;19.77;;;11.37;;
3573;SDS011;1801;51.050;6.246;2023-03-01T13:32:22;15.85;;;9.25;;
3573;SDS011;1801;51.050;6.246;2023-03-01T13:34:50;12.90;;;10.47;;
3573;SDS011;1801;51.050;6.246;2023-03-01T13:37:23;17.33;;;10.57;;
3573;SDS011;1801;51.050;6.246;2023-03-01T13:39:48;12.67;;;9.23;;
3573;SDS011;1801;51.050;6.246;2023-03-01T13:44:54;13.43;;;8.87;;
3573;SDS011;1801;51.050;6.246;2023-03-01T13:47:19;15.43;;;10.03;;
3573;SDS011;1801;51.050;6.246;2023-03-01T13:49:53;12.73;;;8.30;;
3573;SDS011;1801;51.050;6.246;2023-03-01T13:54:59;13.73;;;8.30;;
3573;SDS011;1801;51.050;6.246;2023-03-01T13:57:28;14.50;;;9.03;;
3573;SDS011;1801;51.050;6.246;2023-03-01T13:59:55;14.33;;;9.27;;
3573;SDS011;1801;51.050;6.246;2023-03-01T14:02:20;14.00;;;9.17;;
3573;SDS011;1801;51.050;6.246;2023-03-01T14:04:55;17.07;;;8.90;;
3573;SDS011;1801;51.050;6.246;2023-03-01T14:07:21;14.63;;;9.10;;
3573;SDS011;1801;51.050;6.246;2023-03-01T14:09:48;19.67;;;9.83;;
3573;SDS011;1801;51.050;6.246;2023-03-01T14:12:21;15.73;;;8.50;;
3573;SDS011;1801;51.050;6.246;2023-03-01T14:14:54;16.17;;;9.13;;
3573;SDS011;1801;51.050;6.246;2023-03-01T14:22:55;12.37;;;8.70;;
3573;SDS011;1801;51.050;6.246;2023-03-01T14:25:26;14.03;;;8.40;;
3573;SDS011;1801;51.050;6.246;2023-03-01T14:27:56;12.10;;;7.90;;
3573;SDS011;1801;51.050;6.246;2023-03-01T14:30:23;12.70;;;8.63;;
3573;SDS011;1801;51.050;6.246;2023-03-01T14:32:52;11.97;;;8.57;;
3573;SDS011;1801;51.050;6.246;2023-03-01T14:35:22;14.13;;;7.80;;
3573;SDS011;1801;51.050;6.246;2023-03-01T14:37:48;12.73;;;8.00;;
3573;SDS011;1801;51.050;6.246;2023-03-01T14:40:25;13.57;;;9.07;;
3573;SDS011;1801;51.050;6.246;2023-03-01T14:42:50;12.07;;;7.73;;
3573;SDS011;1801;51.050;6.246;2023-03-01T14:45:16;12.23;;;7.13;;
3573;SDS011;1801;51.050;6.246;2023-03-01T14:47:43;12.03;;;7.77;;
3573;SDS011;1801;51.050;6.246;2023-03-01T14:50:23;11.70;;;7.60;;
3573;SDS011;1801;51.050;6.246;2023-03-01T14:52:50;12.17;;;6.80;;
3573;SDS011;1801;51.050;6.246;2023-03-01T14:55:20;10.90;;;7.10;;
3573;SDS011;1801;51.050;6.246;2023-03-01T14:57:49;12.20;;;7.50;;
3573;SDS011;1801;51.050;6.246;2023-03-01T15:00:22;9.80;;;7.27;;
3573;SDS011;1801;51.050;6.246;2023-03-01T15:02:48;11.73;;;7.23;;
3573;SDS011;1801;51.050;6.246;2023-03-01T15:05:15;10.43;;;7.30;;
3573;SDS011;1801;51.050;6.246;2023-03-01T15:07:41;11.97;;;7.10;;
3573;SDS011;1801;51.050;6.246;2023-03-01T15:10:11;13.73;;;7.43;;
3573;SDS011;1801;51.050;6.246;2023-03-01T15:12:41;8.70;;;6.40;;
3573;SDS011;1801;51.050;6.246;2023-03-01T15:17:48;12.17;;;6.87;;
3573;SDS011;1801;51.050;6.246;2023-03-01T15:20:15;10.57;;;6.50;;
3573;SDS011;1801;51.050;6.246;2023-03-01T15:22:43;10.63;;;6.87;;
3573;SDS011;1801;51.050;6.246;2023-03-01T15:25:20;11.50;;;6.73;;
3573;SDS011;1801;51.050;6.246;2023-03-01T15:27:46;12.70;;;7.30;;
3573;SDS011;1801;51.050;6.246;2023-03-01T15:30:18;10.20;;;7.13;;
3573;SDS011;1801;51.050;6.246;2023-03-01T15:32:44;9.90;;;7.30;;
3573;SDS011;1801;51.050;6.246;2023-03-01T15:37:54;11.30;;;7.30;;
3573;SDS011;1801;51.050;6.246;2023-03-01T15:42:45;13.93;;;7.63;;
3573;SDS011;1801;51.050;6.246;2023-03-01T15:45:19;16.20;;;8.00;;
3573;SDS011;1801;51.050;6.246;2023-03-01T15:47:49;12.70;;;7.90;;
3573;SDS011;1801;51.050;6.246;2023-03-01T15:50:19;12.47;;;7.20;;
3573;SDS011;1801;51.050;6.246;2023-03-01T15:52:45;11.00;;;7.90;;
3573;SDS011;1801;51.050;6.246;2023-03-01T15:57:42;14.83;;;7.80;;
3573;SDS011;1801;51.050;6.246;2023-03-01T16:00:12;14.70;;;9.30;;
3573;SDS011;1801;51.050;6.246;2023-03-01T16:02:38;10.43;;;7.57;;
3573;SDS011;1801;51.050;6.246;2023-03-01T16:05:04;21.53;;;8.60;;
3573;SDS011;1801;51.050;6.246;2023-03-01T16:07:29;11.30;;;7.80;;
3573;SDS011;1801;51.050;6.246;2023-03-01T16:09:56;14.00;;;8.23;;
3573;SDS011;1801;51.050;6.246;2023-03-01T16:12:21;15.07;;;7.70;;
3573;SDS011;1801;51.050;6.246;2023-03-01T16:14:46;14.73;;;8.03;;
3573;SDS011;1801;51.050;6.246;2023-03-01T16:17:13;14.00;;;7.80;;
3573;SDS011;1801;51.050;6.246;2023-03-01T16:19:38;13.00;;;7.77;;
3573;SDS011;1801;51.050;6.246;2023-03-01T16:22:03;14.00;;;8.10;;
3573;SDS011;1801;51.050;6.246;2023-03-01T16:24:29;12.50;;;7.97;;
3573;SDS011;1801;51.050;6.246;2023-03-01T16:26:54;13.70;;;7.90;;
3573;SDS011;1801;51.050;6.246;2023-03-01T16:29:20;11.17;;;7.03;;
3573;SDS011;1801;51.050;6.246;2023-03-01T16:31:45;9.83;;;6.27;;
3573;SDS011;1801;51.050;6.246;2023-03-01T16:34:10;13.13;;;7.90;;
3573;SDS011;1801;51.050;6.246;2023-03-01T16:36:36;11.33;;;7.10;;
3573;SDS011;1801;51.050;6.246;2023-03-01T16:39:01;12.87;;;8.43;;
3573;SDS011;1801;51.050;6.246;2023-03-01T16:41:28;12.00;;;7.60;;
3573;SDS011;1801;51.050;6.246;2023-03-01T16:43:53;9.93;;;7.00;;